createdAt,value
2018-06-15T00:00:22.478Z,16.90
2018-06-15T00:02:56.307Z,16.80
2018-06-15T00:05:24.818Z,16.80
2018-06-15T00:07:53.640Z,16.80
2018-06-15T00:10:22.098Z,16.80
2018-06-15T00:12:50.578Z,16.80
2018-06-15T00:15:19.023Z,16.80
2018-06-15T00:17:47.509Z,16.80
2018-06-15T00:20:15.953Z,16.80
2018-06-15T00:22:44.857Z,16.80
2018-06-15T00:25:13.403Z,16.80
2018-06-15T00:27:41.894Z,16.80
2018-06-15T00:30:10.434Z,16.70
2018-06-15T00:32:38.949Z,16.70
2018-06-15T00:35:07.490Z,16.70
2018-06-15T00:37:35.943Z,16.70
2018-06-15T00:40:04.519Z,16.60
2018-06-15T00:45:01.135Z,16.60
2018-06-15T00:47:29.611Z,16.60
2018-06-15T00:49:58.183Z,16.60
2018-06-15T00:52:26.656Z,16.60
2018-06-15T00:54:55.174Z,16.50
2018-06-15T00:57:35.007Z,16.40
2018-06-15T01:00:04.365Z,16.40
2018-06-15T01:02:32.838Z,16.40
2018-06-15T01:05:01.322Z,16.40
2018-06-15T01:07:29.929Z,16.30
2018-06-15T01:09:58.395Z,16.30
2018-06-15T01:12:26.834Z,16.20
2018-06-15T01:14:55.341Z,16.20
2018-06-15T01:19:52.009Z,16.10
2018-06-15T01:22:20.468Z,16.10
2018-06-15T01:27:17.133Z,16.10
2018-06-15T01:29:45.703Z,16.10
2018-06-15T01:32:14.228Z,16.10
2018-06-15T01:34:42.680Z,16.10
2018-06-15T01:37:11.394Z,16.00
2018-06-15T01:39:40.838Z,16.10
2018-06-15T01:42:09.474Z,16.00
2018-06-15T01:44:37.913Z,16.00
2018-06-15T01:47:06.454Z,15.90
2018-06-15T01:49:34.956Z,15.90
2018-06-15T01:52:03.447Z,15.80
2018-06-15T01:54:31.891Z,15.70
2018-06-15T01:57:00.385Z,15.70
2018-06-15T01:59:28.851Z,15.70
2018-06-15T02:01:57.334Z,15.70
2018-06-15T02:04:25.807Z,15.70
2018-06-15T02:06:54.246Z,15.60
2018-06-15T02:09:22.755Z,15.60
2018-06-15T02:11:51.255Z,15.50
2018-06-15T02:14:19.770Z,15.50
2018-06-15T02:16:48.237Z,15.40
2018-06-15T02:19:17.614Z,15.40
2018-06-15T02:21:46.099Z,15.40
2018-06-15T02:24:14.622Z,15.40
2018-06-15T02:26:43.092Z,15.30
2018-06-15T02:29:11.593Z,15.30
2018-06-15T02:31:40.093Z,15.30
2018-06-15T02:34:08.579Z,15.30
2018-06-15T02:36:37.046Z,15.30
2018-06-15T02:39:08.287Z,15.30
2018-06-15T02:41:36.862Z,15.30
2018-06-15T02:44:05.401Z,15.30
2018-06-15T02:46:33.862Z,15.40
2018-06-15T02:49:02.371Z,15.40
2018-06-15T02:51:30.885Z,15.40
2018-06-15T02:53:59.399Z,15.50
2018-06-15T02:56:27.902Z,15.50
2018-06-15T02:58:56.417Z,15.50
2018-06-15T03:01:24.953Z,15.50
2018-06-15T03:03:53.647Z,15.60
2018-06-15T03:06:22.362Z,15.60
2018-06-15T03:08:50.985Z,15.60
2018-06-15T03:11:20.499Z,15.60
2018-06-15T03:13:48.962Z,15.60
2018-06-15T03:16:17.486Z,15.50
2018-06-15T03:18:46.640Z,15.60
2018-06-15T03:21:15.173Z,15.60
2018-06-15T03:23:43.730Z,15.60
2018-06-15T03:26:12.234Z,15.70
2018-06-15T03:28:40.899Z,15.80
2018-06-15T03:31:09.530Z,15.80
2018-06-15T03:33:38.006Z,15.90
2018-06-15T03:36:06.536Z,16.00
2018-06-15T03:38:35.056Z,16.10
2018-06-15T03:41:03.763Z,16.20
2018-06-15T03:43:32.290Z,16.30
2018-06-15T03:46:00.786Z,16.50
2018-06-15T03:48:29.250Z,16.60
2018-06-15T03:50:57.764Z,16.70
2018-06-15T03:53:26.238Z,16.80
2018-06-15T03:55:54.707Z,16.90
2018-06-15T03:58:23.182Z,17.00
2018-06-15T04:00:51.734Z,17.10
2018-06-15T04:03:20.186Z,17.10
2018-06-15T04:05:48.696Z,17.20
2018-06-15T04:08:17.161Z,17.30
2018-06-15T04:10:45.669Z,17.50
2018-06-15T04:13:14.387Z,17.60
2018-06-15T04:15:42.846Z,17.70
2018-06-15T04:18:11.507Z,17.90
2018-06-15T04:20:40.352Z,18.00
2018-06-15T04:23:08.818Z,18.10
2018-06-15T04:25:37.260Z,18.20
2018-06-15T04:28:05.798Z,18.30
2018-06-15T04:30:34.394Z,18.50
2018-06-15T04:33:02.909Z,18.60
2018-06-15T04:35:31.390Z,18.70
2018-06-15T04:37:59.910Z,18.80
2018-06-15T04:40:28.409Z,18.90
2018-06-15T04:42:57.619Z,19.00
2018-06-15T04:45:26.147Z,19.20
2018-06-15T04:47:54.606Z,19.30
2018-06-15T04:50:23.131Z,19.40
2018-06-15T04:52:51.602Z,19.50
2018-06-15T04:57:48.280Z,19.80
2018-06-15T05:00:16.794Z,19.90
2018-06-15T05:02:45.273Z,20.00
2018-06-15T05:05:13.801Z,20.10
2018-06-15T05:07:42.318Z,20.20
2018-06-15T05:10:10.778Z,20.30
2018-06-15T05:12:39.261Z,20.40
2018-06-15T05:15:07.731Z,20.50
2018-06-15T05:17:36.268Z,20.60
2018-06-15T05:20:05.414Z,20.70
2018-06-15T05:25:02.969Z,20.80
2018-06-15T05:27:31.498Z,20.90
2018-06-15T05:30:00.050Z,20.90
2018-06-15T05:32:28.675Z,21.00
2018-06-15T05:34:57.144Z,21.10
2018-06-15T05:37:25.770Z,21.10
2018-06-15T05:39:54.255Z,21.20
2018-06-15T05:42:22.772Z,21.20
2018-06-15T05:44:51.243Z,21.20
2018-06-15T05:47:19.751Z,21.20
2018-06-15T05:49:48.295Z,21.30
2018-06-15T05:52:16.820Z,21.30
2018-06-15T05:54:45.419Z,21.30
2018-06-15T05:57:14.058Z,21.40
2018-06-15T05:59:42.538Z,21.50
2018-06-15T06:02:11.071Z,21.50
2018-06-15T06:04:39.530Z,21.60
2018-06-15T06:07:08.151Z,21.70
2018-06-15T06:09:36.616Z,21.70
2018-06-15T06:12:05.127Z,21.70
2018-06-15T06:14:33.579Z,21.80
2018-06-15T06:17:02.095Z,21.90
2018-06-15T06:19:30.561Z,21.80
2018-06-15T06:21:59.069Z,21.80
2018-06-15T06:24:27.523Z,21.80
2018-06-15T06:26:56.050Z,21.90
2018-06-15T06:29:24.514Z,21.90
2018-06-15T06:31:53.017Z,22.00
2018-06-15T06:34:21.577Z,22.00
2018-06-15T06:36:50.062Z,22.00
2018-06-15T06:39:18.538Z,22.10
2018-06-15T06:41:47.039Z,22.00
2018-06-15T06:44:15.542Z,22.00
2018-06-15T06:46:44.063Z,22.10
2018-06-15T06:49:12.578Z,22.10
2018-06-15T06:51:41.102Z,22.10
2018-06-15T06:54:09.571Z,22.00
2018-06-15T06:56:38.087Z,22.00
2018-06-15T06:59:06.572Z,22.10
2018-06-15T07:01:35.101Z,22.30
2018-06-15T07:04:03.638Z,22.40
2018-06-15T07:06:32.295Z,22.60
2018-06-15T07:09:00.798Z,22.60
2018-06-15T07:11:29.303Z,22.80
2018-06-15T07:13:57.782Z,23.00
2018-06-15T07:16:26.616Z,23.00
2018-06-15T07:18:55.144Z,22.90
2018-06-15T07:21:23.614Z,23.10
2018-06-15T07:23:52.072Z,23.20
2018-06-15T07:26:20.586Z,23.20
2018-06-15T07:28:49.066Z,23.30
2018-06-15T07:31:17.611Z,23.30
2018-06-15T07:33:46.082Z,23.40
2018-06-15T07:36:14.609Z,23.50
2018-06-15T07:38:43.115Z,23.60
2018-06-15T07:41:11.696Z,23.60
2018-06-15T07:43:40.314Z,23.60
2018-06-15T07:46:08.954Z,23.70
2018-06-15T07:48:37.443Z,23.70
2018-06-15T07:51:05.954Z,23.70
2018-06-15T07:53:34.583Z,23.80
2018-06-15T07:56:03.120Z,23.80
2018-06-15T07:58:31.690Z,23.80
2018-06-15T08:01:00.301Z,23.80
2018-06-15T08:03:28.832Z,23.80
2018-06-15T08:05:57.345Z,23.90
2018-06-15T08:08:26.962Z,23.90
2018-06-15T08:10:55.548Z,23.90
2018-06-15T08:13:27.959Z,24.00
2018-06-15T08:15:57.222Z,24.00
2018-06-15T08:18:25.701Z,24.00
2018-06-15T08:20:54.167Z,24.00
2018-06-15T08:23:23.451Z,24.00
2018-06-15T08:25:51.934Z,24.00
2018-06-15T08:28:20.487Z,24.10
2018-06-15T08:30:49.104Z,24.20
2018-06-15T08:35:45.896Z,24.40
2018-06-15T08:38:14.644Z,24.50
2018-06-15T08:40:47.426Z,24.50
2018-06-15T08:43:15.945Z,24.60
2018-06-15T08:45:44.598Z,24.60
2018-06-15T08:48:13.280Z,24.60
2018-06-15T08:50:41.763Z,24.60
2018-06-15T08:53:10.283Z,24.60
2018-06-15T08:55:38.864Z,24.70
2018-06-15T08:58:07.475Z,24.70
2018-06-15T09:00:35.967Z,24.70
2018-06-15T09:03:04.507Z,24.80
2018-06-15T09:05:33.002Z,24.80
2018-06-15T09:08:01.623Z,24.80
2018-06-15T09:10:30.079Z,24.90
2018-06-15T09:12:58.597Z,25.00
2018-06-15T09:15:27.055Z,25.10
2018-06-15T09:17:55.578Z,25.20
2018-06-15T09:20:24.097Z,25.30
2018-06-15T09:22:52.565Z,25.10
2018-06-15T09:25:21.108Z,25.10
2018-06-15T09:27:49.592Z,24.90
2018-06-15T09:30:18.085Z,25.00
2018-06-15T09:32:46.604Z,25.10
2018-06-15T09:35:15.172Z,25.20
2018-06-15T09:37:43.692Z,25.40
2018-06-15T09:40:12.272Z,25.40
2018-06-15T09:42:40.771Z,25.40
2018-06-15T09:45:09.318Z,25.40
2018-06-15T09:47:37.806Z,25.40
2018-06-15T09:50:06.338Z,25.30
2018-06-15T09:52:34.844Z,25.40
2018-06-15T09:55:03.362Z,25.40
2018-06-15T09:57:31.912Z,25.50
2018-06-15T10:00:00.422Z,25.50
2018-06-15T10:02:28.928Z,25.50
2018-06-15T10:04:57.487Z,25.50
2018-06-15T10:07:25.982Z,25.40
2018-06-15T10:09:54.524Z,25.50
2018-06-15T10:12:23.051Z,25.60
2018-06-15T10:14:51.571Z,25.60
2018-06-15T10:17:20.106Z,25.70
2018-06-15T10:19:48.579Z,25.70
2018-06-15T10:22:17.099Z,25.70
2018-06-15T10:24:45.573Z,25.70
2018-06-15T10:27:14.125Z,25.80
2018-06-15T10:29:42.683Z,25.80
2018-06-15T10:32:11.254Z,25.90
2018-06-15T10:34:39.735Z,25.90
2018-06-15T10:37:08.261Z,25.80
2018-06-15T10:39:36.858Z,25.80
2018-06-15T10:42:05.334Z,25.90
2018-06-15T10:44:33.805Z,25.70
2018-06-15T10:47:02.307Z,25.60
2018-06-15T10:49:30.783Z,25.50
2018-06-15T10:51:59.327Z,25.50
2018-06-15T10:54:27.810Z,25.40
2018-06-15T10:56:56.374Z,25.40
2018-06-15T10:59:24.911Z,25.40
2018-06-15T11:01:53.503Z,25.40
2018-06-15T11:04:21.995Z,25.30
2018-06-15T11:06:50.616Z,25.30
2018-06-15T11:09:19.102Z,25.30
2018-06-15T11:11:47.607Z,25.40
2018-06-15T11:14:16.116Z,25.50
2018-06-15T11:16:45.484Z,25.70
2018-06-15T11:19:14.129Z,25.70
2018-06-15T11:21:42.597Z,25.90
2018-06-15T11:24:11.171Z,26.00
2018-06-15T11:26:39.663Z,26.10
2018-06-15T11:29:08.199Z,26.00
2018-06-15T11:31:36.733Z,25.90
2018-06-15T11:34:05.249Z,25.90
2018-06-15T11:36:33.731Z,25.80
2018-06-15T11:39:02.293Z,25.80
2018-06-15T11:41:30.890Z,25.70
2018-06-15T11:43:59.450Z,25.70
2018-06-15T11:46:27.933Z,25.50
2018-06-15T11:48:56.477Z,25.40
2018-06-15T11:51:24.979Z,25.40
2018-06-15T11:53:53.451Z,25.40
2018-06-15T11:56:21.974Z,25.30
2018-06-15T11:58:50.456Z,25.40
2018-06-15T12:01:18.988Z,25.40
2018-06-15T12:03:47.470Z,25.40
2018-06-15T12:06:16.176Z,25.50
2018-06-15T12:08:44.757Z,25.60
2018-06-15T12:11:13.404Z,25.60
2018-06-15T12:13:42.442Z,25.60
2018-06-15T12:16:11.050Z,25.60
2018-06-15T12:18:39.572Z,25.60
2018-06-15T12:21:08.209Z,25.60
2018-06-15T12:23:36.713Z,25.70
2018-06-15T12:26:05.425Z,25.80
2018-06-15T12:28:33.908Z,25.90
2018-06-15T12:31:02.407Z,25.90
2018-06-15T12:33:31.014Z,25.90
2018-06-15T12:35:59.550Z,25.70
2018-06-15T12:38:28.312Z,25.60
2018-06-15T12:40:56.984Z,25.50
2018-06-15T12:43:25.513Z,25.30
2018-06-15T12:45:54.073Z,25.20
2018-06-15T12:48:22.641Z,25.10
2018-06-15T12:50:51.287Z,25.00
2018-06-15T12:53:21.057Z,24.80
2018-06-15T12:55:49.810Z,24.80
2018-06-15T12:58:18.361Z,24.60
2018-06-15T13:00:46.851Z,24.60
2018-06-15T13:03:15.384Z,24.60
2018-06-15T13:05:43.905Z,24.60
2018-06-15T13:08:12.549Z,24.60
2018-06-15T13:10:41.097Z,24.60
2018-06-15T13:13:09.615Z,24.60
2018-06-15T13:15:38.255Z,24.70
2018-06-15T13:18:06.777Z,24.80
2018-06-15T13:20:35.303Z,24.90
2018-06-15T13:23:04.615Z,25.00
2018-06-15T13:25:33.166Z,25.20
2018-06-15T13:28:01.765Z,25.40
2018-06-15T13:30:30.327Z,25.70
2018-06-15T13:32:58.979Z,26.70
2018-06-15T13:35:27.565Z,28.00
2018-06-15T13:37:56.933Z,29.40
2018-06-15T13:40:26.212Z,29.20
2018-06-15T13:42:54.693Z,29.00
2018-06-15T13:45:23.240Z,28.70
2018-06-15T13:47:51.749Z,28.40
2018-06-15T13:50:20.485Z,28.20
2018-06-15T13:52:48.964Z,28.20
2018-06-15T13:55:17.560Z,28.00
2018-06-15T13:57:46.119Z,27.90
2018-06-15T14:00:14.848Z,27.60
2018-06-15T14:02:43.476Z,27.40
2018-06-15T14:05:11.964Z,27.20
2018-06-15T14:07:40.628Z,27.00
2018-06-15T14:10:09.144Z,26.70
2018-06-15T14:12:37.690Z,26.50
2018-06-15T14:15:06.278Z,26.40
2018-06-15T14:17:34.947Z,26.30
2018-06-15T14:20:07.407Z,26.20
2018-06-15T14:22:38.472Z,26.20
2018-06-15T14:25:07.586Z,26.20
2018-06-15T14:27:36.754Z,26.10
2018-06-15T14:32:34.392Z,26.10
2018-06-15T14:35:03.205Z,26.20
2018-06-15T14:37:32.128Z,26.30
2018-06-15T14:40:01.468Z,26.40
2018-06-15T14:42:30.001Z,26.50
2018-06-15T14:44:58.746Z,26.40
2018-06-15T14:47:27.330Z,26.40
2018-06-15T14:49:55.932Z,26.40
2018-06-15T14:52:24.519Z,26.20
2018-06-15T14:54:53.026Z,26.20
2018-06-15T14:57:21.607Z,26.20
2018-06-15T14:59:50.844Z,26.20
2018-06-15T15:04:48.761Z,26.20
2018-06-15T15:07:18.017Z,26.20
2018-06-15T15:09:46.621Z,26.20
2018-06-15T15:12:16.060Z,26.10
2018-06-15T15:14:47.523Z,25.90
2018-06-15T15:17:18.055Z,25.80
2018-06-15T15:19:50.038Z,25.70
2018-06-15T15:25:00.443Z,25.60
2018-06-15T15:29:58.144Z,25.40
2018-06-15T15:32:26.805Z,25.30
2018-06-15T15:34:55.424Z,25.30
2018-06-15T15:37:24.010Z,25.30
2018-06-15T15:39:52.634Z,25.10
2018-06-15T15:42:22.050Z,25.00
2018-06-15T15:44:50.538Z,24.90
2018-06-15T15:49:48.435Z,24.70
2018-06-15T15:52:16.991Z,24.60
2018-06-15T15:54:45.657Z,24.60
2018-06-15T15:57:14.288Z,24.50
2018-06-15T15:59:42.869Z,24.40
2018-06-15T16:02:11.416Z,24.40
2018-06-15T16:04:40.675Z,24.30
2018-06-15T16:07:09.342Z,24.30
2018-06-15T16:09:37.827Z,24.20
2018-06-15T16:12:06.557Z,24.20
2018-06-15T16:14:35.052Z,24.20
2018-06-15T16:17:03.550Z,24.20
2018-06-15T16:19:32.194Z,24.30
2018-06-15T16:22:00.782Z,24.30
2018-06-15T16:24:30.091Z,24.40
2018-06-15T16:26:58.769Z,24.70
2018-06-15T16:29:27.603Z,24.90
2018-06-15T16:31:56.102Z,25.10
2018-06-15T16:34:24.739Z,25.30
2018-06-15T16:36:53.449Z,25.20
2018-06-15T16:39:22.003Z,25.00
2018-06-15T16:41:50.554Z,24.90
2018-06-15T16:44:19.163Z,24.90
2018-06-15T16:46:48.819Z,24.90
2018-06-15T16:49:17.470Z,24.80
2018-06-15T16:51:47.645Z,24.80
2018-06-15T16:54:17.185Z,24.80
2018-06-15T16:56:45.788Z,24.60
2018-06-15T16:59:14.382Z,24.50
2018-06-15T17:01:43.075Z,24.40
2018-06-15T17:04:11.621Z,24.30
2018-06-15T17:06:40.198Z,24.20
2018-06-15T17:09:10.223Z,24.10
2018-06-15T17:11:38.744Z,23.90
2018-06-15T17:14:07.298Z,23.80
2018-06-15T17:16:35.979Z,23.70
2018-06-15T17:19:04.528Z,23.60
2018-06-15T17:21:33.073Z,23.40
2018-06-15T17:24:01.647Z,23.40
2018-06-15T17:26:30.163Z,23.30
2018-06-15T17:28:58.869Z,23.20
2018-06-15T17:31:27.505Z,23.20
2018-06-15T17:33:56.320Z,23.10
2018-06-15T17:36:24.819Z,23.10
2018-06-15T17:38:53.320Z,23.00
2018-06-15T17:41:21.833Z,23.00
2018-06-15T17:43:50.380Z,22.90
2018-06-15T17:46:18.913Z,22.90
2018-06-15T17:48:47.429Z,22.80
2018-06-15T17:51:16.190Z,22.80
2018-06-15T17:53:44.814Z,22.70
2018-06-15T17:56:13.325Z,22.70
2018-06-15T17:58:41.828Z,22.70
2018-06-15T18:01:10.385Z,22.60
2018-06-15T18:03:38.992Z,22.60
2018-06-15T18:06:07.562Z,22.60
2018-06-15T18:08:37.026Z,22.50
2018-06-15T18:11:05.656Z,22.50
2018-06-15T18:13:34.288Z,22.50
2018-06-15T18:16:02.779Z,22.40
2018-06-15T18:18:31.421Z,22.40
2018-06-15T18:21:00.142Z,22.40
2018-06-15T18:23:28.699Z,22.30
2018-06-15T18:25:57.823Z,22.30
2018-06-15T18:28:26.404Z,22.30
2018-06-15T18:30:54.993Z,22.30
2018-06-15T18:33:26.672Z,22.30
2018-06-15T18:35:55.525Z,22.30
2018-06-15T18:38:25.036Z,22.30
2018-06-15T18:40:54.494Z,22.30
2018-06-15T18:43:23.138Z,22.20
2018-06-15T18:45:51.695Z,22.20
2018-06-15T18:48:20.415Z,22.20
2018-06-15T18:50:48.991Z,22.10
2018-06-15T18:53:17.507Z,22.10
2018-06-15T18:55:46.025Z,22.10
2018-06-15T18:58:14.589Z,22.00
2018-06-15T19:00:43.146Z,22.00
2018-06-15T19:03:11.729Z,22.00
2018-06-15T19:05:40.352Z,21.90
2018-06-15T19:08:08.867Z,21.90
2018-06-15T19:10:37.450Z,21.90
2018-06-15T19:13:06.219Z,21.80
2018-06-15T19:15:34.844Z,21.80
2018-06-15T19:18:04.294Z,21.80
2018-06-15T19:20:32.799Z,21.80
2018-06-15T19:23:01.512Z,21.80
2018-06-15T19:25:31.292Z,21.80
2018-06-15T19:27:59.986Z,21.80
2018-06-15T19:30:28.546Z,21.70
2018-06-15T19:32:57.284Z,21.70
2018-06-15T19:35:25.889Z,21.70
2018-06-15T19:37:54.400Z,21.60
2018-06-15T19:40:22.898Z,21.60
2018-06-15T19:42:51.415Z,21.60
2018-06-15T19:45:21.141Z,21.60
2018-06-15T19:47:51.229Z,21.60
2018-06-15T19:50:19.823Z,21.50
2018-06-15T19:52:48.441Z,21.50
2018-06-15T19:55:20.656Z,21.40
2018-06-15T19:57:49.217Z,21.40
2018-06-15T20:00:17.734Z,21.40
2018-06-15T20:02:48.151Z,21.40
2018-06-15T20:05:16.767Z,21.30
2018-06-15T20:07:45.544Z,21.30
2018-06-15T20:10:14.820Z,21.40
2018-06-15T20:12:44.158Z,21.30
2018-06-15T20:15:12.707Z,21.30
2018-06-15T20:17:42.117Z,21.30
2018-06-15T20:20:10.805Z,21.30
2018-06-15T20:22:40.848Z,21.30
2018-06-15T20:25:09.433Z,21.30
2018-06-15T20:27:38.300Z,21.30
2018-06-15T20:30:07.186Z,21.30
2018-06-15T20:32:35.766Z,21.30
2018-06-15T20:35:04.412Z,21.30
2018-06-15T20:37:32.937Z,21.20
2018-06-15T20:40:02.623Z,21.20
2018-06-15T20:42:32.340Z,21.30
2018-06-15T20:45:00.872Z,21.20
2018-06-15T20:47:29.411Z,21.20
2018-06-15T20:49:58.019Z,21.20
2018-06-15T20:52:26.558Z,21.20
2018-06-15T20:54:55.102Z,21.20
2018-06-15T20:57:23.649Z,21.20
2018-06-15T20:59:52.324Z,21.20
2018-06-15T21:02:20.952Z,21.10
2018-06-15T21:04:50.369Z,21.10
2018-06-15T21:07:18.993Z,21.10
2018-06-15T21:09:47.670Z,21.10
2018-06-15T21:12:16.239Z,21.10
2018-06-15T21:14:44.863Z,21.10
2018-06-15T21:17:14.454Z,21.10
2018-06-15T21:19:42.989Z,21.00
2018-06-15T21:22:11.586Z,21.00
2018-06-15T21:24:41.160Z,21.00
2018-06-15T21:27:11.150Z,20.90
2018-06-15T21:29:39.802Z,20.90
2018-06-15T21:32:09.531Z,20.90
2018-06-15T21:34:37.996Z,20.90
2018-06-15T21:37:06.681Z,20.90
2018-06-15T21:39:35.230Z,20.90
2018-06-15T21:42:03.836Z,20.90
2018-06-15T21:47:00.653Z,20.80
2018-06-15T21:49:29.162Z,20.80
2018-06-15T21:51:59.110Z,20.80
2018-06-15T21:54:28.204Z,20.70
2018-06-15T21:56:56.823Z,20.80
2018-06-15T21:59:25.327Z,20.80
2018-06-15T22:01:53.931Z,20.70
2018-06-15T22:04:22.684Z,20.70
2018-06-15T22:06:51.185Z,20.70
2018-06-15T22:09:19.739Z,20.70
2018-06-15T22:11:48.233Z,20.60
2018-06-15T22:14:17.508Z,20.70
2018-06-15T22:16:52.005Z,20.70
2018-06-15T22:19:22.567Z,20.70
2018-06-15T22:21:52.270Z,20.60
2018-06-15T22:24:21.561Z,20.60
2018-06-15T22:26:50.067Z,20.60
2018-06-15T22:29:18.759Z,20.60
2018-06-15T22:31:47.510Z,20.60
2018-06-15T22:34:20.860Z,20.60
2018-06-15T22:36:49.365Z,20.60
2018-06-15T22:39:18.994Z,20.60
2018-06-15T22:41:47.458Z,20.50
2018-06-15T22:44:17.009Z,20.50
2018-06-15T22:46:45.491Z,20.50
2018-06-15T22:49:14.024Z,20.50
2018-06-15T22:51:42.670Z,20.50
2018-06-15T22:54:11.247Z,20.50
2018-06-15T22:56:41.315Z,20.50
2018-06-15T22:59:09.811Z,20.50
2018-06-15T23:01:39.038Z,20.40
2018-06-15T23:04:07.819Z,20.40
2018-06-15T23:06:36.468Z,20.40
2018-06-15T23:09:07.426Z,20.40
2018-06-15T23:11:35.922Z,20.30
2018-06-15T23:14:04.610Z,20.30
2018-06-15T23:16:33.095Z,20.30
2018-06-15T23:19:01.587Z,20.30
2018-06-15T23:21:30.152Z,20.30
2018-06-15T23:23:58.641Z,20.30
2018-06-15T23:26:27.138Z,20.30
2018-06-15T23:28:55.683Z,20.30
2018-06-15T23:31:24.219Z,20.20
2018-06-15T23:33:52.670Z,20.20
2018-06-15T23:36:21.171Z,20.20
2018-06-15T23:38:49.606Z,20.20
2018-06-15T23:41:18.115Z,20.20
2018-06-15T23:43:46.593Z,20.20
2018-06-15T23:46:15.154Z,20.20
2018-06-15T23:48:43.636Z,20.10
2018-06-15T23:51:12.149Z,20.10
2018-06-15T23:53:40.690Z,20.10
2018-06-15T23:56:09.299Z,20.10
2018-06-15T23:58:37.818Z,20.10
